createdAt,value
2023-05-20T00:01:18.283Z,100495.03
2023-05-20T00:03:46.600Z,100491.78
2023-05-20T00:06:14.111Z,100493.22
2023-05-20T00:08:41.522Z,100495.53
2023-05-20T00:11:12.522Z,100492.31
2023-05-20T00:13:40.080Z,100490.59
2023-05-20T00:16:07.757Z,100488.19
2023-05-20T00:18:35.450Z,100487.75
2023-05-20T00:21:02.934Z,100486.50
2023-05-20T00:23:30.495Z,100489.63
2023-05-20T00:25:59.801Z,100486.75
2023-05-20T00:28:28.142Z,100481.56
2023-05-20T00:30:55.609Z,100481.81
2023-05-20T00:33:23.066Z,100474.19
2023-05-20T00:35:50.837Z,100478.97
2023-05-20T00:38:18.613Z,100481.25
2023-05-20T00:40:46.113Z,100481.19
2023-05-20T00:43:13.470Z,100481.88
2023-05-20T00:45:40.971Z,100477.03
2023-05-20T00:48:09.810Z,100472.22
2023-05-20T00:50:37.436Z,100466.53
2023-05-20T00:53:05.162Z,100468.06
2023-05-20T00:55:33.567Z,100467.63
2023-05-20T00:58:01.490Z,100473.06
2023-05-20T01:00:29.125Z,100464.59
2023-05-20T01:02:57.427Z,100464.50
2023-05-20T01:05:25.335Z,100464.84
2023-05-20T01:07:53.351Z,100463.25
2023-05-20T01:10:22.865Z,100466.72
2023-05-20T01:12:51.819Z,100463.03
2023-05-20T01:15:19.212Z,100462.13
2023-05-20T01:17:51.156Z,100471.19
2023-05-20T01:20:19.080Z,100463.91
2023-05-20T01:22:56.552Z,100463.91
2023-05-20T01:25:25.185Z,100468.66
2023-05-20T01:27:53.003Z,100468.53
2023-05-20T01:30:21.196Z,100471.66
2023-05-20T01:32:52.175Z,100465.66
2023-05-20T01:35:20.856Z,100466.72
2023-05-20T01:37:50.096Z,100471.38
2023-05-20T01:40:17.779Z,100465.69
2023-05-20T01:42:46.095Z,100468.03
2023-05-20T01:45:13.919Z,100472.66
2023-05-20T01:47:41.747Z,100472.09
2023-05-20T01:50:09.340Z,100477.97
2023-05-20T01:52:37.175Z,100474.75
2023-05-20T01:55:05.121Z,100488.16
2023-05-20T01:57:32.923Z,100493.50
2023-05-20T02:00:00.527Z,100499.16
2023-05-20T02:02:28.202Z,100505.16
2023-05-20T02:04:55.837Z,100496.13
2023-05-20T02:07:23.295Z,100495.09
2023-05-20T02:09:52.764Z,100494.63
2023-05-20T02:12:20.376Z,100490.72
2023-05-20T02:14:48.167Z,100501.91
2023-05-20T02:17:17.298Z,100499.59
2023-05-20T02:19:45.408Z,100507.56
2023-05-20T02:22:14.762Z,100514.59
2023-05-20T02:24:44.697Z,100510.78
2023-05-20T02:27:13.099Z,100509.97
2023-05-20T02:29:40.671Z,100506.88
2023-05-20T02:32:09.053Z,100506.19
2023-05-20T02:34:37.096Z,100506.19
2023-05-20T02:37:04.821Z,100505.84
2023-05-20T02:39:33.031Z,100497.97
2023-05-20T02:42:00.894Z,100507.56
2023-05-20T02:44:28.306Z,100509.16
2023-05-20T02:46:55.810Z,100507.13
2023-05-20T02:49:24.465Z,100504.69
2023-05-20T02:51:52.366Z,100494.38
2023-05-20T02:54:20.032Z,100511.50
2023-05-20T02:56:47.481Z,100502.00
2023-05-20T02:59:15.506Z,100501.34
2023-05-20T03:01:43.357Z,100512.91
2023-05-20T03:04:11.684Z,100507.00
2023-05-20T03:06:44.436Z,100511.03
2023-05-20T03:09:12.009Z,100506.44
2023-05-20T03:11:40.398Z,100511.28
2023-05-20T03:14:08.184Z,100513.72
2023-05-20T03:16:35.780Z,100514.50
2023-05-20T03:19:03.282Z,100519.25
2023-05-20T03:21:30.782Z,100522.38
2023-05-20T03:23:58.609Z,100526.31
2023-05-20T03:26:26.013Z,100520.75
2023-05-20T03:28:53.445Z,100525.59
2023-05-20T03:31:21.371Z,100528.03
2023-05-20T03:33:49.048Z,100520.53
2023-05-20T03:36:16.598Z,100524.91
2023-05-20T03:38:44.097Z,100524.91
2023-05-20T03:41:11.554Z,100516.25
2023-05-20T03:43:39.163Z,100517.03
2023-05-20T03:46:06.799Z,100506.44
2023-05-20T03:48:35.024Z,100512.41
2023-05-20T03:51:02.616Z,100513.34
2023-05-20T03:53:30.293Z,100505.59
2023-05-20T03:55:57.760Z,100514.38
2023-05-20T03:58:26.383Z,100511.25
2023-05-20T04:00:53.961Z,100515.66
2023-05-20T04:03:22.891Z,100520.47
2023-05-20T04:05:50.853Z,100515.84
2023-05-20T04:08:22.240Z,100523.47
2023-05-20T04:10:49.831Z,100517.94
2023-05-20T04:13:17.435Z,100517.69
2023-05-20T04:15:45.122Z,100522.06
2023-05-20T04:18:13.854Z,100524.59
2023-05-20T04:20:41.987Z,100521.56
2023-05-20T04:23:10.760Z,100532.44
2023-05-20T04:25:41.362Z,100536.59
2023-05-20T04:28:10.945Z,100541.06
2023-05-20T04:30:38.506Z,100532.16
2023-05-20T04:33:06.303Z,100542.63
2023-05-20T04:35:35.420Z,100547.63
2023-05-20T04:38:05.512Z,100547.41
2023-05-20T04:40:32.930Z,100554.75
2023-05-20T04:43:00.958Z,100550.56
2023-05-20T04:45:28.787Z,100553.53
2023-05-20T04:47:56.450Z,100548.19
2023-05-20T04:50:23.995Z,100546.31
2023-05-20T04:52:51.765Z,100542.09
2023-05-20T04:55:19.932Z,100551.00
2023-05-20T04:57:47.543Z,100548.78
2023-05-20T05:00:16.087Z,100542.59
2023-05-20T05:02:44.077Z,100543.16
2023-05-20T05:05:11.791Z,100543.66
2023-05-20T05:07:40.486Z,100536.22
2023-05-20T05:10:08.363Z,100538.38
2023-05-20T05:12:35.965Z,100531.44
2023-05-20T05:15:05.492Z,100532.78
2023-05-20T05:17:33.654Z,100525.78
2023-05-20T05:20:01.770Z,100537.44
2023-05-20T05:22:32.556Z,100535.19
2023-05-20T05:25:00.167Z,100541.66
2023-05-20T05:27:27.943Z,100538.59
2023-05-20T05:29:55.849Z,100534.72
2023-05-20T05:32:24.226Z,100541.28
2023-05-20T05:34:51.743Z,100554.16
2023-05-20T05:37:19.381Z,100545.97
2023-05-20T05:39:47.108Z,100543.38
2023-05-20T05:42:14.563Z,100535.16
2023-05-20T05:44:42.266Z,100549.25
2023-05-20T05:47:09.954Z,100545.84
2023-05-20T05:49:37.499Z,100545.19
2023-05-20T05:52:05.600Z,100546.50
2023-05-20T05:54:33.800Z,100537.88
2023-05-20T05:57:02.086Z,100545.91
2023-05-20T05:59:32.305Z,100548.88
2023-05-20T06:02:00.312Z,100545.06
2023-05-20T06:04:27.907Z,100540.88
2023-05-20T06:06:57.674Z,100540.94
2023-05-20T06:09:25.360Z,100542.72
2023-05-20T06:11:53.800Z,100544.00
2023-05-20T06:14:21.656Z,100544.56
2023-05-20T06:16:49.227Z,100536.81
2023-05-20T06:19:19.887Z,100545.75
2023-05-20T06:21:47.596Z,100545.88
2023-05-20T06:24:16.080Z,100548.34
2023-05-20T06:26:46.043Z,100548.50
2023-05-20T06:29:13.562Z,100545.38
2023-05-20T06:31:41.560Z,100541.56
2023-05-20T06:34:09.174Z,100537.69
2023-05-20T06:36:37.076Z,100534.59
2023-05-20T06:39:06.577Z,100531.91
2023-05-20T06:41:35.079Z,100543.19
2023-05-20T06:44:09.106Z,100532.50
2023-05-20T06:47:16.429Z,100542.25
2023-05-20T06:49:47.504Z,100534.41
2023-05-20T06:52:15.985Z,100535.38
2023-05-20T06:54:43.595Z,100529.94
2023-05-20T06:57:12.114Z,100534.50
2023-05-20T06:59:41.705Z,100536.59
2023-05-20T07:02:09.590Z,100536.31
2023-05-20T07:04:37.418Z,100538.84
2023-05-20T07:07:05.529Z,100529.78
2023-05-20T07:09:33.358Z,100535.47
2023-05-20T07:12:02.067Z,100532.75
2023-05-20T07:14:30.524Z,100535.63
2023-05-20T07:16:58.240Z,100536.47
2023-05-20T07:19:26.119Z,100542.56
2023-05-20T07:21:54.536Z,100533.44
2023-05-20T07:24:36.451Z,100541.94
2023-05-20T07:27:05.653Z,100537.22
2023-05-20T07:29:33.758Z,100536.16
2023-05-20T07:32:01.685Z,100539.44
2023-05-20T07:34:29.659Z,100533.13
2023-05-20T07:36:57.900Z,100537.19
2023-05-20T07:39:26.335Z,100544.47
2023-05-20T07:41:54.039Z,100540.53
2023-05-20T07:44:23.278Z,100536.53
2023-05-20T07:46:52.144Z,100537.41
2023-05-20T07:49:21.390Z,100537.47
2023-05-20T07:51:49.118Z,100535.19
2023-05-20T07:54:17.019Z,100534.44
2023-05-20T07:56:47.487Z,100535.31
2023-05-20T07:59:15.095Z,100528.94
2023-05-20T08:01:45.823Z,100531.41
2023-05-20T08:04:16.368Z,100528.66
2023-05-20T08:06:45.190Z,100537.09
2023-05-20T08:09:18.250Z,100522.28
2023-05-20T08:11:50.143Z,100540.34
2023-05-20T08:14:18.076Z,100544.00
2023-05-20T08:16:49.112Z,100539.59
2023-05-20T08:19:16.877Z,100531.22
2023-05-20T08:21:48.348Z,100526.81
2023-05-20T08:24:16.099Z,100527.22
2023-05-20T08:26:44.252Z,100528.41
2023-05-20T08:29:12.246Z,100522.81
2023-05-20T08:31:40.105Z,100529.22
2023-05-20T08:34:08.180Z,100521.19
2023-05-20T08:36:35.985Z,100506.72
2023-05-20T08:39:04.623Z,100513.56
2023-05-20T08:41:32.363Z,100513.13
2023-05-20T08:44:00.547Z,100507.09
2023-05-20T08:46:28.771Z,100504.66
2023-05-20T08:48:59.431Z,100501.84
2023-05-20T08:51:27.815Z,100512.22
2023-05-20T08:53:55.374Z,100508.56
2023-05-20T08:56:23.691Z,100499.28
2023-05-20T08:58:51.245Z,100498.44
2023-05-20T09:01:18.790Z,100494.41
2023-05-20T09:03:46.272Z,100498.38
2023-05-20T09:06:20.319Z,100506.34
2023-05-20T09:08:52.839Z,100500.63
2023-05-20T09:11:22.409Z,100499.00
2023-05-20T09:13:50.607Z,100492.53
2023-05-20T09:16:18.225Z,100488.97
2023-05-20T09:18:46.480Z,100491.75
2023-05-20T09:21:14.165Z,100480.50
2023-05-20T09:23:41.669Z,100485.31
2023-05-20T09:26:09.349Z,100484.09
2023-05-20T09:28:39.638Z,100488.03
2023-05-20T09:31:08.928Z,100485.19
2023-05-20T09:33:37.085Z,100478.34
2023-05-20T09:36:04.973Z,100476.25
2023-05-20T09:38:38.173Z,100472.06
2023-05-20T09:41:11.841Z,100480.00
2023-05-20T09:43:42.697Z,100475.00
2023-05-20T09:46:10.269Z,100464.34
2023-05-20T09:48:39.112Z,100465.78
2023-05-20T09:51:07.978Z,100464.09
2023-05-20T09:53:36.159Z,100458.38
2023-05-20T09:56:03.942Z,100450.75
2023-05-20T09:58:32.066Z,100451.09
2023-05-20T10:00:59.665Z,100449.84
2023-05-20T10:03:28.402Z,100438.06
2023-05-20T10:06:05.252Z,100438.72
2023-05-20T10:08:51.591Z,100436.28
2023-05-20T10:11:43.757Z,100434.59
2023-05-20T10:14:49.196Z,100443.09
2023-05-20T10:17:28.712Z,100434.47
2023-05-20T10:19:59.803Z,100441.59
2023-05-20T10:22:37.246Z,100436.97
2023-05-20T10:25:08.807Z,100434.81
2023-05-20T10:27:47.088Z,100430.63
2023-05-20T10:30:21.954Z,100429.34
2023-05-20T10:32:56.779Z,100420.53
2023-05-20T10:35:26.709Z,100429.34
2023-05-20T10:38:11.260Z,100421.56
2023-05-20T10:40:38.849Z,100423.25
2023-05-20T10:43:13.678Z,100410.34
2023-05-20T10:45:51.398Z,100404.38
2023-05-20T10:48:32.997Z,100415.78
2023-05-20T10:51:04.281Z,100415.19
2023-05-20T10:53:42.547Z,100411.25
2023-05-20T10:56:26.347Z,100417.75
2023-05-20T10:58:54.819Z,100412.06
2023-05-20T11:01:24.872Z,100405.34
2023-05-20T11:03:53.900Z,100396.19
2023-05-20T11:06:27.206Z,100410.78
2023-05-20T11:08:54.883Z,100402.75
2023-05-20T11:11:22.531Z,100403.25
2023-05-20T11:13:53.373Z,100402.50
2023-05-20T11:16:22.062Z,100404.50
2023-05-20T11:18:50.622Z,100394.56
2023-05-20T11:21:19.687Z,100395.38
2023-05-20T11:23:47.371Z,100393.47
2023-05-20T11:26:15.022Z,100395.03
2023-05-20T11:28:43.296Z,100389.81
2023-05-20T11:31:11.923Z,100382.28
2023-05-20T11:33:43.744Z,100390.75
2023-05-20T11:36:26.755Z,100394.75
2023-05-20T11:38:57.061Z,100397.84
2023-05-20T11:41:25.540Z,100391.13
2023-05-20T11:43:58.235Z,100391.34
2023-05-20T11:46:25.935Z,100383.50
2023-05-20T11:48:57.087Z,100384.25
2023-05-20T11:51:27.941Z,100379.44
2023-05-20T11:54:05.461Z,100381.97
2023-05-20T11:56:37.337Z,100380.69
2023-05-20T11:59:05.755Z,100372.34
2023-05-20T12:01:37.807Z,100368.59
2023-05-20T12:04:05.631Z,100362.19
2023-05-20T12:06:33.616Z,100355.84
2023-05-20T12:09:07.258Z,100354.75
2023-05-20T12:11:35.865Z,100345.59
2023-05-20T12:14:04.109Z,100349.91
2023-05-20T12:16:32.918Z,100348.97
2023-05-20T12:19:01.063Z,100348.66
2023-05-20T12:21:29.033Z,100348.03
2023-05-20T12:23:58.196Z,100341.84
2023-05-20T12:26:26.954Z,100333.75
2023-05-20T12:28:55.208Z,100336.06
2023-05-20T12:31:22.824Z,100338.28
2023-05-20T12:33:51.942Z,100333.56
2023-05-20T12:36:22.470Z,100336.50
2023-05-20T12:38:50.028Z,100339.34
2023-05-20T12:41:17.530Z,100340.03
2023-05-20T12:43:45.133Z,100335.47
2023-05-20T12:46:12.787Z,100325.66
2023-05-20T12:48:42.534Z,100329.72
2023-05-20T12:51:10.228Z,100334.41
2023-05-20T12:53:37.968Z,100326.16
2023-05-20T12:56:06.180Z,100323.16
2023-05-20T12:58:35.087Z,100330.69
2023-05-20T13:01:02.622Z,100320.09
2023-05-20T13:03:30.758Z,100311.44
2023-05-20T13:05:59.454Z,100313.19
2023-05-20T13:08:28.677Z,100308.41
2023-05-20T13:10:56.446Z,100301.16
2023-05-20T13:13:24.385Z,100306.28
2023-05-20T13:15:51.902Z,100303.13
2023-05-20T13:18:20.093Z,100299.25
2023-05-20T13:20:47.730Z,100295.84
2023-05-20T13:23:15.321Z,100300.44
2023-05-20T13:25:42.994Z,100293.03
2023-05-20T13:28:10.884Z,100296.25
2023-05-20T13:30:38.916Z,100296.88
2023-05-20T13:33:07.042Z,100293.03
2023-05-20T13:35:34.878Z,100283.66
2023-05-20T13:38:02.585Z,100288.09
2023-05-20T13:40:30.453Z,100288.81
2023-05-20T13:42:58.412Z,100279.78
2023-05-20T13:45:26.558Z,100287.75
2023-05-20T13:47:54.147Z,100293.16
2023-05-20T13:50:21.767Z,100288.03
2023-05-20T13:52:49.862Z,100282.16
2023-05-20T13:55:18.108Z,100289.81
2023-05-20T13:57:45.701Z,100286.69
2023-05-20T14:00:13.784Z,100281.91
2023-05-20T14:02:41.563Z,100287.50
2023-05-20T14:05:09.677Z,100274.41
2023-05-20T14:07:37.894Z,100280.03
2023-05-20T14:10:06.931Z,100271.66
2023-05-20T14:12:34.527Z,100279.53
2023-05-20T14:15:02.309Z,100277.13
2023-05-20T14:17:30.160Z,100270.38
2023-05-20T14:19:57.775Z,100273.09
2023-05-20T14:22:26.673Z,100270.41
2023-05-20T14:24:54.242Z,100262.16
2023-05-20T14:27:21.841Z,100271.72
2023-05-20T14:29:49.386Z,100269.19
2023-05-20T14:32:16.943Z,100269.53
2023-05-20T14:34:44.513Z,100273.09
2023-05-20T14:37:12.303Z,100273.56
2023-05-20T14:39:39.846Z,100283.03
2023-05-20T14:42:07.434Z,100284.31
2023-05-20T14:44:35.010Z,100283.06
2023-05-20T14:47:02.908Z,100280.81
2023-05-20T14:49:31.611Z,100276.88
2023-05-20T14:51:59.225Z,100279.81
2023-05-20T14:54:27.757Z,100269.00
2023-05-20T14:56:55.335Z,100275.50
2023-05-20T14:59:23.116Z,100267.94
2023-05-20T15:01:50.710Z,100266.03
2023-05-20T15:04:18.264Z,100269.00
2023-05-20T15:06:45.888Z,100261.09
2023-05-20T15:09:13.383Z,100264.75
2023-05-20T15:11:40.998Z,100262.78
2023-05-20T15:14:08.780Z,100264.41
2023-05-20T15:16:36.446Z,100265.16
2023-05-20T15:19:04.156Z,100260.72
2023-05-20T15:21:32.300Z,100260.69
2023-05-20T15:23:59.833Z,100269.81
2023-05-20T15:26:27.418Z,100265.66
2023-05-20T15:28:55.140Z,100258.91
2023-05-20T15:31:23.149Z,100257.31
2023-05-20T15:33:51.306Z,100259.72
2023-05-20T15:36:18.839Z,100255.25
2023-05-20T15:38:46.346Z,100251.59
2023-05-20T15:41:14.570Z,100254.41
2023-05-20T15:43:42.453Z,100258.88
2023-05-20T15:46:11.383Z,100257.25
2023-05-20T15:48:39.178Z,100247.63
2023-05-20T15:51:06.750Z,100260.69
2023-05-20T15:53:34.617Z,100247.38
2023-05-20T15:56:02.262Z,100250.94
2023-05-20T15:58:29.926Z,100250.56
2023-05-20T16:00:58.254Z,100251.84
2023-05-20T16:03:26.005Z,100252.25
2023-05-20T16:05:53.644Z,100247.84
2023-05-20T16:08:23.857Z,100244.69
2023-05-20T16:10:51.399Z,100255.63
2023-05-20T16:13:18.885Z,100253.31
2023-05-20T16:15:47.112Z,100252.22
2023-05-20T16:18:15.584Z,100252.72
2023-05-20T16:20:43.054Z,100255.25
2023-05-20T16:23:10.663Z,100253.34
2023-05-20T16:25:38.265Z,100263.88
2023-05-20T16:28:06.137Z,100257.56
2023-05-20T16:30:35.369Z,100257.63
2023-05-20T16:33:03.192Z,100262.94
2023-05-20T16:35:31.792Z,100257.06
2023-05-20T16:37:59.323Z,100261.09
2023-05-20T16:40:26.850Z,100270.00
2023-05-20T16:42:54.802Z,100260.03
2023-05-20T16:45:22.435Z,100266.47
2023-05-20T16:47:50.055Z,100265.34
2023-05-20T16:50:17.757Z,100255.75
2023-05-20T16:52:45.762Z,100263.88
2023-05-20T16:55:13.761Z,100263.16
2023-05-20T16:57:42.875Z,100259.19
2023-05-20T17:00:11.697Z,100265.28
2023-05-20T17:02:40.013Z,100269.78
2023-05-20T17:05:08.004Z,100264.25
2023-05-20T17:07:36.017Z,100273.13
2023-05-20T17:10:03.845Z,100272.38
2023-05-20T17:12:31.834Z,100274.84
2023-05-20T17:14:59.371Z,100278.47
2023-05-20T17:17:26.901Z,100277.72
2023-05-20T17:19:54.856Z,100277.38
2023-05-20T17:22:22.574Z,100279.03
2023-05-20T17:24:50.099Z,100287.88
2023-05-20T17:27:17.658Z,100284.69
2023-05-20T17:29:47.381Z,100273.06
2023-05-20T17:32:14.935Z,100285.53
2023-05-20T17:34:42.600Z,100289.94
2023-05-20T17:37:10.147Z,100287.56
2023-05-20T17:39:37.686Z,100290.34
2023-05-20T17:42:05.540Z,100291.56
2023-05-20T17:44:33.702Z,100303.19
2023-05-20T17:47:01.371Z,100305.22
2023-05-20T17:49:29.212Z,100306.81
2023-05-20T17:51:57.262Z,100305.25
2023-05-20T17:54:24.754Z,100322.47
2023-05-20T17:56:52.331Z,100329.69
2023-05-20T17:59:19.821Z,100332.47
2023-05-20T18:01:47.441Z,100329.63
2023-05-20T18:04:15.154Z,100344.44
2023-05-20T18:06:43.110Z,100345.63
2023-05-20T18:09:10.651Z,100347.22
2023-05-20T18:11:39.293Z,100344.41
2023-05-20T18:14:06.986Z,100344.78
2023-05-20T18:16:35.023Z,100343.19
2023-05-20T18:19:03.101Z,100343.50
2023-05-20T18:21:31.320Z,100350.25
2023-05-20T18:23:58.881Z,100346.25
2023-05-20T18:26:26.619Z,100346.22
2023-05-20T18:28:54.161Z,100344.63
2023-05-20T18:31:21.829Z,100349.41
2023-05-20T18:33:49.652Z,100351.00
2023-05-20T18:36:17.383Z,100353.41
2023-05-20T18:38:46.380Z,100359.00
2023-05-20T18:41:14.091Z,100356.59
2023-05-20T18:43:41.710Z,100362.16
2023-05-20T18:46:09.322Z,100356.53
2023-05-20T18:48:37.321Z,100360.47
2023-05-20T18:51:05.006Z,100355.66
2023-05-20T18:53:32.605Z,100351.59
2023-05-20T18:56:03.158Z,100357.16
2023-05-20T18:58:31.812Z,100351.56
2023-05-20T19:00:59.386Z,100364.31
2023-05-20T19:03:27.315Z,100361.44
2023-05-20T19:05:54.948Z,100355.44
2023-05-20T19:08:23.348Z,100359.38
2023-05-20T19:10:51.238Z,100361.72
2023-05-20T19:13:18.995Z,100356.53
2023-05-20T19:15:46.790Z,100351.28
2023-05-20T19:18:14.510Z,100350.91
2023-05-20T19:20:42.147Z,100348.06
2023-05-20T19:23:10.097Z,100343.63
2023-05-20T19:25:37.823Z,100340.78
2023-05-20T19:28:05.885Z,100346.38
2023-05-20T19:30:33.491Z,100339.13
2023-05-20T19:33:03.354Z,100343.91
2023-05-20T19:35:31.266Z,100344.69
2023-05-20T19:37:58.918Z,100344.69
2023-05-20T19:40:26.476Z,100347.84
2023-05-20T19:42:54.214Z,100342.25
2023-05-20T19:45:23.344Z,100350.22
2023-05-20T19:47:51.454Z,100342.25
2023-05-20T19:50:19.086Z,100329.47
2023-05-20T19:52:46.764Z,100341.44
2023-05-20T19:55:14.831Z,100342.97
2023-05-20T19:57:42.938Z,100344.50
2023-05-20T20:00:11.404Z,100340.44
2023-05-20T20:02:41.934Z,100340.38
2023-05-20T20:05:10.031Z,100340.38
2023-05-20T20:07:37.686Z,100330.81
2023-05-20T20:10:07.122Z,100337.16
2023-05-20T20:12:35.174Z,100333.13
2023-05-20T20:15:03.644Z,100339.47
2023-05-20T20:17:33.903Z,100339.47
2023-05-20T20:20:01.626Z,100335.88
2023-05-20T20:22:29.616Z,100335.47
2023-05-20T20:24:57.122Z,100338.63
2023-05-20T20:27:24.889Z,100338.63
2023-05-20T20:29:52.808Z,100336.19
2023-05-20T20:32:20.606Z,100341.75
2023-05-20T20:34:48.413Z,100337.72
2023-05-20T20:37:15.952Z,100336.91
2023-05-20T20:39:45.395Z,100335.69
2023-05-20T20:42:13.164Z,100328.00
2023-05-20T20:44:42.721Z,100330.00
2023-05-20T20:47:10.446Z,100326.34
2023-05-20T20:49:38.570Z,100328.75
2023-05-20T20:52:06.726Z,100320.78
2023-05-20T20:54:34.843Z,100321.94
2023-05-20T20:57:02.879Z,100315.91
2023-05-20T20:59:31.824Z,100327.84
2023-05-20T21:01:59.577Z,100321.84
2023-05-20T21:04:28.015Z,100321.44
2023-05-20T21:06:55.575Z,100321.78
2023-05-20T21:09:23.555Z,100316.53
2023-05-20T21:11:51.001Z,100322.91
2023-05-20T21:14:18.902Z,100322.13
2023-05-20T21:16:46.559Z,100319.31
2023-05-20T21:19:14.383Z,100325.28
2023-05-20T21:21:42.817Z,100319.25
2023-05-20T21:24:10.676Z,100314.88
2023-05-20T21:26:38.254Z,100320.81
2023-05-20T21:29:07.521Z,100316.81
2023-05-20T21:31:35.209Z,100315.56
2023-05-20T21:34:02.980Z,100321.84
2023-05-20T21:36:30.755Z,100314.56
2023-05-20T21:38:58.351Z,100314.53
2023-05-20T21:41:27.267Z,100318.50
2023-05-20T21:43:54.754Z,100323.22
2023-05-20T21:46:22.554Z,100315.97
2023-05-20T21:48:50.140Z,100325.91
2023-05-20T21:51:17.741Z,100323.84
2023-05-20T21:53:45.312Z,100320.63
2023-05-20T21:56:12.940Z,100324.56
2023-05-20T21:58:41.851Z,100317.75
2023-05-20T22:01:10.060Z,100324.88
2023-05-20T22:03:39.929Z,100320.47
2023-05-20T22:06:07.845Z,100320.34
2023-05-20T22:08:35.520Z,100314.34
2023-05-20T22:11:07.542Z,100311.94
2023-05-20T22:13:35.634Z,100307.94
2023-05-20T22:16:05.066Z,100301.16
2023-05-20T22:18:32.944Z,100300.34
2023-05-20T22:21:01.106Z,100305.13
2023-05-20T22:23:29.147Z,100304.31
2023-05-20T22:25:56.882Z,100298.69
2023-05-20T22:28:26.282Z,100294.66
2023-05-20T22:30:54.855Z,100293.00
2023-05-20T22:33:23.079Z,100287.00
2023-05-20T22:35:58.183Z,100287.31
2023-05-20T22:38:25.727Z,100277.75
2023-05-20T22:40:53.215Z,100284.09
2023-05-20T22:43:23.375Z,100289.66
2023-05-20T22:45:51.137Z,100292.03
2023-05-20T22:48:23.049Z,100301.13
2023-05-20T22:50:51.310Z,100286.38
2023-05-20T22:53:20.244Z,100285.59
2023-05-20T22:55:48.245Z,100283.56
2023-05-20T22:58:16.444Z,100287.09
2023-05-20T23:00:44.636Z,100295.03
2023-05-20T23:03:12.592Z,100296.63
2023-05-20T23:05:41.079Z,100286.28
2023-05-20T23:08:08.588Z,100284.69
2023-05-20T23:10:36.185Z,100296.63
2023-05-20T23:13:03.800Z,100291.06
2023-05-20T23:15:31.555Z,100296.63
2023-05-20T23:17:59.149Z,100301.78
2023-05-20T23:20:29.340Z,100296.19
2023-05-20T23:22:56.924Z,100300.97
2023-05-20T23:25:27.108Z,100301.78
2023-05-20T23:27:55.010Z,100307.72
2023-05-20T23:30:22.866Z,100312.47
2023-05-20T23:32:51.398Z,100300.47
2023-05-20T23:35:19.643Z,100300.47
2023-05-20T23:37:47.456Z,100295.22
2023-05-20T23:40:15.259Z,100295.22
2023-05-20T23:42:43.508Z,100287.63
2023-05-20T23:45:11.721Z,100289.97
2023-05-20T23:47:40.332Z,100291.56
2023-05-20T23:50:08.440Z,100293.88
2023-05-20T23:52:36.423Z,100283.47
2023-05-20T23:55:04.271Z,100287.81
2023-05-20T23:57:31.937Z,100289.00
2023-05-20T23:59:59.435Z,100284.94
